Meteo Giornale » Osservazioni meteo Stati Uniti (USA) » Clayton Airpark
ore: 06:55 - Osservazioni Meteo Clayton Airpark
Lat. 36° 26' N Lon. 103° 9' W Alt. 1513 metri s.l.m.
18 °C
Molto Nuvoloso
Temp. 24 Ore
17 °C
33 °C
Nord
5.5 Km/h
Dew point 11 °C
Umidità 63 %
Visibilità 10 Km
Il sole sorge alle ore 06:24
Il sole tramonta alle ore 19:20
| Data e Ora | Cielo e Fenomeni | T °C | DP °C | Um. % | Pres. hPa | Vis. km | Vento km/h | |
|---|---|---|---|---|---|---|---|---|
| Oggi h: 06:55 | Molto Nuvoloso | 18 | 11 | 63 | 1022 | 10 | N 5.5 | |
| Oggi h: 05:55 | Nuvoloso | 17 | 11 | 67 | 1021 | 10 | N 5.5 | |
| Oggi h: 04:55 | Sereno | 17 | 11 | 67 | 1021 | 10 | N 0 | |
| Oggi h: 03:55 | Sereno | 19 | 11 | 59 | 1021 | 10 | O/SO 11.1 | |
| Oggi h: 02:55 | Sereno | 19 | 11 | 59 | 1021 | 10 | O/SO 13 | |
| Oggi h: 01:55 | Sereno | 21 | 9 | 46 | 1022 | 10 | SO 11.1 | |
| Oggi h: 00:55 | Sereno | 22 | 9 | 43 | 1022 | 10 | SO 16.7 | |
| Ieri h: 23:55 | Poco Nuvoloso | 23 | 9 | 40 | 1022 | 10 | SO 13 | |
| Ieri h: 22:55 | Sereno | 24 | 9 | 38 | 1022 | 10 | SO 16.7 | |
| Ieri h: 21:55 | Molto Nuvoloso | 23 | 9 | 40 | 1021 | 10 | O 7.4 | |
| Ieri h: 20:55 | Sereno | 25 | 9 | 36 | 1020 | 10 | S/SE 14.8 | |
| Ieri h: 19:55 | Sereno | 27 | 9 | 32 | 1019 | 10 | S/SE 16.7 | |
| Ieri h: 18:55 | Sereno | 31 | 9 | 25 | 1018 | 10 | S/SE 29.6 | |
| Ieri h: 17:55 | Nuvoloso | 33 | 9 | 22 | 1018 | 10 | S 20.3 | |
| Ieri h: 16:55 | Sereno | 33 | 8 | 21 | 1018 | 10 | S 16.7 | |
| Ieri h: 15:55 | Nuvoloso | 33 | 9 | 22 | 1019 | 10 | S/SE 27.8 | |
| Ieri h: 14:55 | Sereno | 33 | 11 | 26 | 1019 | 10 | SE 20.3 | |
| Ieri h: 13:55 | Sereno | 33 | 11 | 26 | 1020 | 10 | SE 22.2 | |
| Ieri h: 12:55 | Sereno | 32 | 11 | 27 | 1021 | 10 | N 0 | |
| Ieri h: 11:55 | Sereno | 30 | 12 | 33 | 1021 | 10 | N 0 | |
| Ieri h: 10:55 | Sereno | 28 | 12 | 37 | 1022 | 10 | N 5.5 | |
| Ieri h: 09:55 | Sereno | 26 | 13 | 44 | 1022 | 10 | N 5.5 | |
| Ieri h: 08:55 | Sereno | 24 | 13 | 50 | 1022 | 10 | N 9.3 | |
| Ieri h: 07:55 | Sereno | 23 | 12 | 49 | 1022 | 10 | N 16.7 | |



